El-djazair II — 7TBR — position and weather

sailwx.info

Track history (hours):
 
Tides and Currents Weather Stations Pressure Air Temp Water Temp Dewpoint Dewpoint Depression Visibility Wind Speed Wind Dir Waves Ship Positions

El-djazair II

Last reported at 2015-Mar-27 03:05 UTC. Time now 2015-Mar-27 05:20 UTC.
Position N 37°42' E 000°03'.

Length 146 m; draft 6.3 m.

Type: Passenger vessel. MMSI: 605026190.

Date/timePositionNaut miles runAvg speedWind from/ knotsBaromVisibWave heightAir tempDewpointWater temp
2015-Mar-27 03:05N 37°42' E 000°03'1018.9
2015-Mar-27 02:33N 37°33' E 000°00'1919.1
2015-Mar-27 01:33N 37°14' W 000°06'2419.6
2015-Mar-27 00:20N 36°51' W 000°14'166 3.6
2015-Mar-25 02:30N 38°21' E 002°42'2122.0
2015-Mar-25 01:33N 38°40' E 002°55'2222.2
2015-Mar-25 00:33N 38°59' E 003°08'2222.0
2015-Mar-24 23:32N 39°19' E 003°21'3221.8
2015-Mar-24 22:05N 39°50' E 003°34'3422.0
2015-Mar-24 20:32N 40°23' E 003°40'3022.2
2015-Mar-24 19:11N 40°53' E 003°45'1621.6
2015-Mar-24 18:27N 41°08' E 003°48'2022.4
2015-Mar-24 17:33N 41°28' E 003°52'2322.3
2015-Mar-24 16:32N 41°50' E 004°03'2622.2
2015-Mar-24 15:21N 42°12' E 004°22'2622.2
2015-Mar-24 14:12N 42°34' E 004°39'1723.5
2015-Mar-24 13:27N 42°49' E 004°52'2322.0
2015-Mar-24 12:25N 43°08' E 005°08'1416.1
2015-Mar-24 11:32N 43°18' E 005°22'0 0.0
2015-Mar-24 10:23N 43°18' E 005°22'0 0.0
2015-Mar-24 09:29N 43°18' E 005°22'0 0.0
2015-Mar-24 08:29N 43°18' E 005°22'6 6.1
2015-Mar-24 07:33N 43°13' E 005°18'2222.4
2015-Mar-24 06:33N 42°53' E 005°06'2622.0
2015-Mar-24 05:24N 42°29' E 004°55'15522.2
2015-Mar-23 22:24N 40°03' E 003°42'1922.4
2015-Mar-23 21:33N 39°45' E 003°37'2222.3
2015-Mar-23 20:33N 39°23' E 003°33'2222.4
2015-Mar-23 19:33N 39°00' E 003°30'2222.3
2015-Mar-23 18:33N 38°38' E 003°26'2322.0
2015-Mar-23 17:29N 38°15' E 003°22'4722.0
2015-Mar-23 15:20N 37°28' E 003°14'3922.0
2015-Mar-23 13:33N 36°49' E 003°07'394 7.9
2015-Mar-21 11:25N 43°10' E 005°19'8 8.3
2015-Mar-21 10:29N 43°18' E 005°22'0 0.0
2015-Mar-21 09:29N 43°18' E 005°22'0 0.0
2015-Mar-21 08:29N 43°18' E 005°22'0 0.0
2015-Mar-21 07:29N 43°18' E 005°22'0 0.0
2015-Mar-21 06:29N 43°18' E 005°22'0 0.0
2015-Mar-21 05:29N 43°18' E 005°22'0 0.0
2015-Mar-21 04:23N 43°18' E 005°22'0 0.0
2015-Mar-21 03:29N 43°18' E 005°22'0 0.0
2015-Mar-21 02:29N 43°18' E 005°22'0 0.0
2015-Mar-21 01:28N 43°18' E 005°22'0 0.0
2015-Mar-21 00:28N 43°18' E 005°22'0 0.0
2015-Mar-20 23:28N 43°18' E 005°22'0 0.0
2015-Mar-20 22:28N 43°18' E 005°22'0 0.0
2015-Mar-20 21:28N 43°18' E 005°22'0 0.0
2015-Mar-20 20:28N 43°18' E 005°22'0 0.0
2015-Mar-20 19:28N 43°18' E 005°22'0 0.0
2015-Mar-20 18:28N 43°18' E 005°22'0 0.0
2015-Mar-20 17:31N 43°18' E 005°22'0 0.0
2015-Mar-20 16:28N 43°18' E 005°22'0 0.0
2015-Mar-20 15:28N 43°18' E 005°22'0 0.0
2015-Mar-20 14:28N 43°18' E 005°22'0 0.0
2015-Mar-20 13:28N 43°18' E 005°22'0 0.0
2015-Mar-20 12:28N 43°18' E 005°22'0 0.0
2015-Mar-20 11:28N 43°18' E 005°22'0 0.0
2015-Mar-20 10:28N 43°18' E 005°22'0 0.0
2015-Mar-20 09:33N 43°18' E 005°22'1714.7
2015-Mar-20 08:23N 43°01' E 005°26'2923.1
2015-Mar-20 07:07N 42°36' E 005°47'1722.0
2015-Mar-20 06:20N 42°21' E 005°57'20022.8
2015-Mar-19 21:32N 39°25' E 008°04'210 4.1
2015-Mar-17 18:33N 41°17' E 004°11'2120.7
2015-Mar-17 17:33N 41°36' E 003°60'2221.8
2015-Mar-17 16:33N 41°57' E 003°60'2121.1
2015-Mar-17 15:33N 42°18' E 004°06'2322.4
2015-Mar-17 14:33N 42°35' E 004°26'2822.7
2015-Mar-17 13:18N 42°56' E 004°51'1721.7
2015-Mar-17 12:32N 43°09' E 005°06'1414.4
2015-Mar-17 11:32N 43°18' E 005°22'0 0.0
2015-Mar-17 10:32N 43°18' E 005°22'0 0.0
2015-Mar-17 09:26N 43°18' E 005°22'0 0.0
2015-Mar-17 08:33N 43°18' E 005°22'1312.5
2015-Mar-17 07:33N 43°10' E 005°08'2722.0
2015-Mar-17 06:19N 42°52' E 004°41'  
Track history (hours):
 
Tides and Currents Weather Stations Pressure Air Temp Water Temp Dewpoint Dewpoint Depression Visibility Wind Speed Wind Dir Waves Ship Positions

El-djazair II

Last reported at 2015-Mar-27 03:05 UTC. Time now 2015-Mar-27 05:20 UTC.
Position N 37°42' E 000°03'.

Length 146 m; draft 6.3 m.

Type: Passenger vessel. MMSI: 605026190.

Date/timePositionNaut miles runAvg speedWind from/ knotsBaromVisibWave heightAir tempDewpointWater temp
2015-Mar-27 03:05N 37°42' E 000°03'1018.9
2015-Mar-27 02:33N 37°33' E 000°00'1919.1
2015-Mar-27 01:33N 37°14' W 000°06'2419.6
2015-Mar-27 00:20N 36°51' W 000°14'166 3.6
2015-Mar-25 02:30N 38°21' E 002°42'2122.0
2015-Mar-25 01:33N 38°40' E 002°55'2222.2
2015-Mar-25 00:33N 38°59' E 003°08'2222.0
2015-Mar-24 23:32N 39°19' E 003°21'3221.8
2015-Mar-24 22:05N 39°50' E 003°34'3422.0
2015-Mar-24 20:32N 40°23' E 003°40'3022.2
2015-Mar-24 19:11N 40°53' E 003°45'1621.6
2015-Mar-24 18:27N 41°08' E 003°48'2022.4
2015-Mar-24 17:33N 41°28' E 003°52'2322.3
2015-Mar-24 16:32N 41°50' E 004°03'2622.2
2015-Mar-24 15:21N 42°12' E 004°22'2622.2
2015-Mar-24 14:12N 42°34' E 004°39'1723.5
2015-Mar-24 13:27N 42°49' E 004°52'2322.0
2015-Mar-24 12:25N 43°08' E 005°08'1416.1
2015-Mar-24 11:32N 43°18' E 005°22'0 0.0
2015-Mar-24 10:23N 43°18' E 005°22'0 0.0
2015-Mar-24 09:29N 43°18' E 005°22'0 0.0
2015-Mar-24 08:29N 43°18' E 005°22'6 6.1
2015-Mar-24 07:33N 43°13' E 005°18'2222.4
2015-Mar-24 06:33N 42°53' E 005°06'2622.0
2015-Mar-24 05:24N 42°29' E 004°55'15522.2
2015-Mar-23 22:24N 40°03' E 003°42'1922.4
2015-Mar-23 21:33N 39°45' E 003°37'2222.3
2015-Mar-23 20:33N 39°23' E 003°33'2222.4
2015-Mar-23 19:33N 39°00' E 003°30'2222.3
2015-Mar-23 18:33N 38°38' E 003°26'2322.0
2015-Mar-23 17:29N 38°15' E 003°22'4722.0
2015-Mar-23 15:20N 37°28' E 003°14'3922.0
2015-Mar-23 13:33N 36°49' E 003°07'394 7.9
2015-Mar-21 11:25N 43°10' E 005°19'8 8.3
2015-Mar-21 10:29N 43°18' E 005°22'0 0.0
2015-Mar-21 09:29N 43°18' E 005°22'0 0.0
2015-Mar-21 08:29N 43°18' E 005°22'0 0.0
2015-Mar-21 07:29N 43°18' E 005°22'0 0.0
2015-Mar-21 06:29N 43°18' E 005°22'0 0.0
2015-Mar-21 05:29N 43°18' E 005°22'0 0.0
2015-Mar-21 04:23N 43°18' E 005°22'0 0.0
2015-Mar-21 03:29N 43°18' E 005°22'0 0.0
2015-Mar-21 02:29N 43°18' E 005°22'0 0.0
2015-Mar-21 01:28N 43°18' E 005°22'0 0.0
2015-Mar-21 00:28N 43°18' E 005°22'0 0.0
2015-Mar-20 23:28N 43°18' E 005°22'0 0.0
2015-Mar-20 22:28N 43°18' E 005°22'0 0.0
2015-Mar-20 21:28N 43°18' E 005°22'0 0.0
2015-Mar-20 20:28N 43°18' E 005°22'0 0.0
2015-Mar-20 19:28N 43°18' E 005°22'0 0.0
2015-Mar-20 18:28N 43°18' E 005°22'0 0.0
2015-Mar-20 17:31N 43°18' E 005°22'0 0.0
2015-Mar-20 16:28N 43°18' E 005°22'0 0.0
2015-Mar-20 15:28N 43°18' E 005°22'0 0.0
2015-Mar-20 14:28N 43°18' E 005°22'0 0.0
2015-Mar-20 13:28N 43°18' E 005°22'0 0.0
2015-Mar-20 12:28N 43°18' E 005°22'0 0.0
2015-Mar-20 11:28N 43°18' E 005°22'0 0.0
2015-Mar-20 10:28N 43°18' E 005°22'0 0.0
2015-Mar-20 09:33N 43°18' E 005°22'1714.7
2015-Mar-20 08:23N 43°01' E 005°26'2923.1
2015-Mar-20 07:07N 42°36' E 005°47'1722.0
2015-Mar-20 06:20N 42°21' E 005°57'20022.8
2015-Mar-19 21:32N 39°25' E 008°04'210 4.1
2015-Mar-17 18:33N 41°17' E 004°11'2120.7
2015-Mar-17 17:33N 41°36' E 003°60'2221.8
2015-Mar-17 16:33N 41°57' E 003°60'2121.1
2015-Mar-17 15:33N 42°18' E 004°06'2322.4
2015-Mar-17 14:33N 42°35' E 004°26'2822.7
2015-Mar-17 13:18N 42°56' E 004°51'1721.7
2015-Mar-17 12:32N 43°09' E 005°06'1414.4
2015-Mar-17 11:32N 43°18' E 005°22'0 0.0
2015-Mar-17 10:32N 43°18' E 005°22'0 0.0
2015-Mar-17 09:26N 43°18' E 005°22'0 0.0
2015-Mar-17 08:33N 43°18' E 005°22'1312.5
2015-Mar-17 07:33N 43°10' E 005°08'2722.0
2015-Mar-17 06:19N 42°52' E 004°41'  

Dump ship's entire track history